Time;durP1;ratioP1;P1;durP2;ratioP2;P2;SDS_P1;SDS_P2;PMS_P1;PMS_P2;Temp;Humidity;BMP_temperature;BMP_pressure;BME280_temperature;BME280_humidity;BME280_pressure;Samples;Min_cycle;Max_cycle;Signal;HPM_P1;HPM_P2
2020/12/25 00:01:32;;;;;;;6.97;3.33;;;4.90;99.90;;;;;;5011353;28;20053;-67
2020/12/25 00:03:59;;;;;;;8.53;3.67;;;4.80;99.90;;;;;;5011778;28;20085;-67
2020/12/25 00:06:35;;;;;;;5.10;2.60;;;4.90;99.90;;;;;;5017146;28;20057;-67
2020/12/25 00:09:02;;;;;;;6.23;2.77;;;4.90;99.90;;;;;;5019184;28;20089;-67
2020/12/25 00:11:33;;;;;;;6.37;2.80;;;4.90;99.90;;;;;;5011394;28;20050;-67
2020/12/25 00:14:01;;;;;;;8.50;3.00;;;4.90;99.90;;;;;;5011042;28;20050;-67
2020/12/25 00:16:28;;;;;;;6.97;2.90;;;4.90;99.90;;;;;;5011505;28;20112;-67
2020/12/25 00:18:55;;;;;;;7.20;3.20;;;4.90;99.90;;;;;;5011676;28;20128;-67
2020/12/25 00:21:22;;;;;;;6.40;3.00;;;4.90;99.90;;;;;;5011040;28;20054;-67
2020/12/25 00:23:49;;;;;;;9.13;3.37;;;4.90;99.90;;;;;;5011701;28;20049;-67
2020/12/25 00:26:26;;;;;;;8.13;3.30;;;4.90;99.90;;;;;;5011244;28;20054;-68
2020/12/25 00:28:52;;;;;;;;;;;4.80;99.90;;;;;;5011807;28;20414;-67
2020/12/25 00:31:28;;;;;;;8.40;3.20;;;4.90;99.90;;;;;;5010990;28;19921;-67
2020/12/25 00:33:55;;;;;;;6.53;3.23;;;4.90;99.90;;;;;;5011454;28;20149;-67
2020/12/25 00:36:29;;;;;;;7.37;2.80;;;4.90;99.90;;;;;;5010822;28;20057;-67
2020/12/25 00:38:57;;;;;;;6.10;3.10;;;4.90;99.90;;;;;;5011290;28;20049;-67
2020/12/25 00:41:24;;;;;;;8.10;3.00;;;4.80;99.90;;;;;;5010693;28;20046;-67
2020/12/25 00:43:51;;;;;;;6.60;2.97;;;4.80;99.90;;;;;;4993685;28;20057;-67
2020/12/25 00:46:18;;;;;;;8.70;2.80;;;4.70;99.90;;;;;;5010754;28;20058;-67
2020/12/25 00:48:45;;;;;;;7.27;3.20;;;4.80;99.90;;;;;;5011009;28;20057;-67
2020/12/25 00:51:13;;;;;;;5.77;2.80;;;4.80;99.90;;;;;;5010524;28;20054;-67
2020/12/25 00:53:41;;;;;;;7.03;3.00;;;4.80;99.90;;;;;;5010825;28;20054;-67
2020/12/25 00:56:07;;;;;;;7.20;3.30;;;4.70;99.90;;;;;;5010492;28;20120;-67
2020/12/25 00:58:34;;;;;;;8.23;2.90;;;4.90;99.90;;;;;;5011462;28;20125;-67
2020/12/25 01:01:00;;;;;;;6.80;3.40;;;4.90;99.90;;;;;;5010733;28;20050;-67
2020/12/25 01:03:27;;;;;;;9.33;3.00;;;4.90;99.90;;;;;;5010541;28;20050;-67
2020/12/25 01:05:54;;;;;;;9.03;3.10;;;5.00;99.90;;;;;;5011507;28;20062;-67
2020/12/25 01:08:21;;;;;;;6.40;2.97;;;4.90;99.90;;;;;;5010416;28;20058;-67
2020/12/25 01:10:48;;;;;;;10.03;3.40;;;4.90;99.90;;;;;;5010778;28;20410;-68
2020/12/25 01:13:15;;;;;;;8.20;3.30;;;4.90;99.90;;;;;;5010351;28;20525;-67
2020/12/25 01:15:41;;;;;;;9.50;3.67;;;4.80;99.90;;;;;;5011303;28;20454;-67
2020/12/25 01:18:08;;;;;;;9.97;3.63;;;4.80;99.90;;;;;;5010447;28;20046;-67
2020/12/25 01:20:35;;;;;;;7.33;3.40;;;4.80;99.90;;;;;;5010426;28;20050;-67
2020/12/25 01:23:03;;;;;;;7.03;3.00;;;4.70;99.90;;;;;;5010426;28;20430;-67
2020/12/25 01:25:30;;;;;;;6.70;2.70;;;4.90;99.90;;;;;;5010804;28;20564;-67
2020/12/25 01:27:56;;;;;;;6.33;2.93;;;4.70;99.90;;;;;;5010913;28;20057;-68
2020/12/25 01:30:23;;;;;;;7.23;2.93;;;4.80;99.90;;;;;;5014552;28;20050;-67
2020/12/25 01:32:50;;;;;;;7.07;3.17;;;4.80;99.90;;;;;;5014679;28;20054;-67
2020/12/25 01:35:17;;;;;;;9.00;3.00;;;4.80;99.90;;;;;;5014365;28;20050;-67
2020/12/25 01:37:43;;;;;;;7.57;3.17;;;4.80;99.90;;;;;;5014380;28;20064;-67
2020/12/25 01:40:11;;;;;;;6.83;3.10;;;4.90;99.90;;;;;;5013629;28;20160;-67
2020/12/25 01:42:37;;;;;;;11.10;3.60;;;4.80;99.90;;;;;;5012917;28;20081;-67
2020/12/25 01:45:05;;;;;;;6.73;3.10;;;4.80;99.90;;;;;;5013765;28;20065;-67
2020/12/25 01:47:33;;;;;;;6.50;2.90;;;4.80;99.90;;;;;;5014279;28;20053;-67
2020/12/25 01:50:00;;;;;;;5.83;2.73;;;5.00;99.90;;;;;;5013774;28;20057;-67
2020/12/25 01:52:27;;;;;;;8.87;2.60;;;4.80;99.90;;;;;;5013906;28;20383;-67
2020/12/25 01:54:54;;;;;;;5.87;2.60;;;4.80;99.90;;;;;;5013688;28;20414;-67
2020/12/25 01:57:24;;;;;;;7.30;2.60;;;4.90;99.90;;;;;;5014139;28;20513;-67
2020/12/25 01:59:51;;;;;;;8.30;2.63;;;5.00;99.90;;;;;;5013761;28;20399;-67
2020/12/25 02:02:18;;;;;;;6.93;2.60;;;4.80;99.90;;;;;;5013557;28;20375;-67
2020/12/25 02:04:46;;;;;;;7.77;2.90;;;4.90;99.90;;;;;;5013834;28;20060;-67
2020/12/25 02:07:12;;;;;;;14.17;3.60;;;4.80;99.90;;;;;;5014020;28;20529;-67
2020/12/25 02:09:39;;;;;;;5.97;2.40;;;4.80;99.90;;;;;;5022731;28;20498;-67
2020/12/25 02:12:06;;;;;;;8.60;2.87;;;4.80;99.90;;;;;;5016648;28;20054;-69
2020/12/25 02:14:34;;;;;;;9.53;3.17;;;4.80;99.90;;;;;;5013666;28;20060;-67
2020/12/25 02:17:01;;;;;;;7.97;3.37;;;4.80;99.90;;;;;;5013347;28;20050;-67
2020/12/25 02:19:27;;;;;;;7.80;3.10;;;4.90;99.90;;;;;;5013688;28;20060;-67
2020/12/25 02:21:55;;;;;;;10.63;3.20;;;4.80;99.90;;;;;;5012830;28;20051;-67
2020/12/25 02:24:22;;;;;;;8.30;3.33;;;4.80;99.90;;;;;;5013473;28;20050;-67
2020/12/25 02:26:48;;;;;;;7.73;3.33;;;4.90;99.90;;;;;;5013074;28;20058;-67
2020/12/25 02:29:15;;;;;;;10.80;3.20;;;4.80;99.90;;;;;;5013360;28;20101;-67
2020/12/25 02:31:42;;;;;;;7.30;3.20;;;4.70;99.90;;;;;;5012792;28;20062;-68
2020/12/25 02:34:08;;;;;;;9.30;3.27;;;4.80;99.90;;;;;;5013431;28;20050;-67
2020/12/25 02:36:35;;;;;;;8.47;3.70;;;4.70;99.90;;;;;;5013644;28;20049;-67
2020/12/25 02:39:04;;;;;;;9.90;4.37;;;4.70;99.90;;;;;;5013252;28;20064;-67
2020/12/25 02:41:31;;;;;;;10.57;4.53;;;4.70;99.90;;;;;;5012298;28;20052;-67
2020/12/25 02:43:58;;;;;;;9.93;4.27;;;4.70;99.90;;;;;;5014298;28;20060;-67
2020/12/25 02:46:27;;;;;;;11.30;3.50;;;4.70;99.90;;;;;;5014282;28;20495;-68
2020/12/25 02:48:53;;;;;;;10.67;3.93;;;4.70;99.90;;;;;;5014234;28;20133;-68
2020/12/25 02:51:20;;;;;;;10.73;4.30;;;4.70;99.90;;;;;;5014713;28;20050;-68
2020/12/25 02:53:47;;;;;;;8.53;3.77;;;4.70;99.90;;;;;;5014357;28;20080;-68
2020/12/25 02:56:16;;;;;;;11.60;4.53;;;4.70;99.90;;;;;;5014480;28;20461;-68
2020/12/25 02:58:42;;;;;;;8.43;3.90;;;4.60;99.90;;;;;;5014158;28;20418;-68
2020/12/25 03:01:13;;;;;;;9.27;3.70;;;4.60;99.90;;;;;;5012857;28;20050;-68
2020/12/25 03:03:39;;;;;;;8.73;4.10;;;4.60;99.90;;;;;;5012386;28;20112;-68
2020/12/25 03:06:06;;;;;;;11.17;4.00;;;4.60;99.90;;;;;;5012900;28;20054;-68
2020/12/25 03:08:33;;;;;;;14.90;4.33;;;4.60;99.90;;;;;;5012284;28;20545;-68
2020/12/25 03:11:00;;;;;;;8.83;4.00;;;4.40;99.90;;;;;;5012352;28;20104;-68
2020/12/25 03:13:28;;;;;;;12.07;3.97;;;4.40;99.90;;;;;;5012203;28;20053;-67
2020/12/25 03:15:54;;;;;;;9.03;4.50;;;4.40;99.90;;;;;;5012724;28;20088;-68
2020/12/25 03:18:21;;;;;;;10.07;4.17;;;4.40;99.90;;;;;;5012065;28;20049;-68
2020/12/25 03:20:48;;;;;;;10.47;4.23;;;4.50;99.90;;;;;;5012158;28;20449;-68
2020/12/25 03:23:15;;;;;;;12.40;4.87;;;4.30;99.90;;;;;;5011362;28;20061;-67
2020/12/25 03:25:42;;;;;;;13.37;5.20;;;4.30;99.90;;;;;;5009610;28;20049;-67
2020/12/25 03:28:08;;;;;;;13.73;5.93;;;4.40;99.90;;;;;;5011843;28;20107;-67
2020/12/25 03:30:36;;;;;;;10.17;4.93;;;4.40;99.90;;;;;;5011591;28;20073;-68
2020/12/25 03:33:03;;;;;;;10.70;4.57;;;4.40;99.90;;;;;;5012299;28;20054;-68
2020/12/25 03:35:32;;;;;;;11.80;4.63;;;4.40;99.90;;;;;;5011890;28;20045;-68
2020/12/25 03:37:59;;;;;;;12.83;4.70;;;4.30;99.90;;;;;;5011928;28;20176;-67
2020/12/25 03:40:26;;;;;;;13.97;5.73;;;4.30;99.90;;;;;;5011568;28;20495;-67
2020/12/25 03:42:52;;;;;;;10.80;4.83;;;4.30;99.90;;;;;;5012088;28;20057;-67
2020/12/25 03:45:19;;;;;;;12.00;4.70;;;4.30;99.90;;;;;;5011759;28;20168;-67
2020/12/25 03:47:47;;;;;;;11.30;4.70;;;4.30;99.90;;;;;;5012110;28;20054;-67
2020/12/25 03:50:13;;;;;;;9.40;4.90;;;4.30;99.90;;;;;;5011223;28;20049;-68
2020/12/25 03:52:40;;;;;;;12.50;5.67;;;4.40;99.90;;;;;;5011592;28;20459;-67
2020/12/25 03:55:06;;;;;;;10.33;5.00;;;4.60;99.90;;;;;;5012108;28;20112;-68
2020/12/25 03:57:33;;;;;;;12.90;5.30;;;4.40;99.90;;;;;;5011308;28;20046;-68
2020/12/25 04:00:00;;;;;;;13.53;5.20;;;4.30;99.90;;;;;;5012066;28;20058;-68
2020/12/25 04:02:26;;;;;;;15.90;5.90;;;4.30;99.90;;;;;;5011181;28;20523;-67
2020/12/25 04:04:54;;;;;;;12.90;5.70;;;4.30;99.90;;;;;;5011983;28;20045;-68
2020/12/25 04:07:20;;;;;;;15.47;5.80;;;4.20;99.90;;;;;;5011288;28;20046;-67
2020/12/25 04:09:47;;;;;;;11.27;5.33;;;4.20;99.90;;;;;;5012388;28;20107;-68
2020/12/25 04:12:14;;;;;;;14.70;5.60;;;4.30;99.90;;;;;;5017229;28;20054;-67
2020/12/25 04:14:40;;;;;;;16.90;6.10;;;4.20;99.90;;;;;;5015215;28;20049;-68
2020/12/25 04:17:07;;;;;;;15.43;5.83;;;4.30;99.90;;;;;;5012535;28;20050;-67
2020/12/25 04:19:34;;;;;;;14.40;5.80;;;4.30;99.90;;;;;;5011763;28;20057;-67
2020/12/25 04:22:01;;;;;;;13.97;5.67;;;4.30;99.90;;;;;;5010617;28;20412;-67
2020/12/25 04:24:28;;;;;;;14.97;6.27;;;4.30;99.90;;;;;;5011691;28;20058;-67
2020/12/25 04:26:55;;;;;;;13.00;5.40;;;4.30;99.90;;;;;;5011229;28;20057;-67
2020/12/25 04:29:21;;;;;;;19.53;5.90;;;4.20;99.90;;;;;;5010964;28;20050;-67
2020/12/25 04:31:48;;;;;;;17.03;5.83;;;4.20;99.90;;;;;;5011118;28;20053;-67
2020/12/25 04:34:15;;;;;;;16.00;6.10;;;4.10;99.90;;;;;;5010810;28;20064;-67
2020/12/25 04:36:41;;;;;;;17.80;6.23;;;4.20;99.90;;;;;;5010997;28;20076;-67
2020/12/25 04:39:09;;;;;;;18.63;7.17;;;4.20;99.90;;;;;;5010839;28;20104;-67
2020/12/25 04:41:36;;;;;;;14.00;6.00;;;4.20;99.90;;;;;;5010842;28;20103;-67
2020/12/25 04:44:06;;;;;;;15.30;6.10;;;4.30;99.90;;;;;;5010801;28;20133;-67
2020/12/25 04:46:33;;;;;;;17.40;6.63;;;4.20;99.90;;;;;;5011097;28;20050;-67
2020/12/25 04:49:00;;;;;;;16.20;6.60;;;4.30;99.90;;;;;;5010486;28;20060;-67
2020/12/25 04:51:27;;;;;;;14.60;6.20;;;4.30;99.90;;;;;;5010929;28;20054;-68
2020/12/25 04:53:55;;;;;;;13.70;5.57;;;4.30;99.90;;;;;;5010693;28;20053;-67
2020/12/25 04:56:24;;;;;;;16.33;6.33;;;4.30;99.90;;;;;;5010747;28;20057;-67
2020/12/25 04:58:51;;;;;;;14.07;7.03;;;4.30;99.90;;;;;;5010585;28;20141;-67
2020/12/25 05:01:18;;;;;;;14.10;6.53;;;4.20;99.90;;;;;;5010740;28;20049;-67
2020/12/25 05:03:48;;;;;;;12.83;5.70;;;4.30;99.90;;;;;;5012974;28;20457;-69
2020/12/25 05:06:15;;;;;;;15.40;5.93;;;4.20;99.90;;;;;;5014885;28;20057;-67
2020/12/25 05:08:44;;;;;;;12.93;6.43;;;4.20;99.90;;;;;;5014915;28;20068;-67
2020/12/25 05:11:12;;;;;;;13.50;6.03;;;4.30;99.90;;;;;;5014074;28;20054;-67
2020/12/25 05:13:45;;;;;;;13.90;5.90;;;4.30;99.90;;;;;;5014904;28;20054;-68
2020/12/25 05:16:13;;;;;;;21.07;7.10;;;4.30;99.90;;;;;;5014217;28;20054;-68
2020/12/25 05:18:43;;;;;;;16.63;6.60;;;4.40;99.90;;;;;;5014753;28;20054;-68
2020/12/25 05:21:11;;;;;;;14.60;7.53;;;4.40;99.90;;;;;;5013993;28;20502;-67
2020/12/25 05:23:39;;;;;;;15.73;6.80;;;4.40;99.90;;;;;;5014636;28;20042;-67
2020/12/25 05:26:06;;;;;;;14.87;6.50;;;4.30;99.90;;;;;;5014293;28;20053;-67
2020/12/25 05:28:38;;;;;;;20.00;6.80;;;4.30;99.90;;;;;;5014589;28;20461;-67
2020/12/25 05:31:06;;;;;;;19.60;7.60;;;4.30;99.90;;;;;;5013888;28;20045;-67
2020/12/25 05:33:33;;;;;;;15.47;6.43;;;4.20;99.90;;;;;;5014476;28;20100;-68
2020/12/25 05:36:04;;;;;;;16.37;6.40;;;4.30;99.90;;;;;;5014136;28;20046;-68
2020/12/25 05:38:31;;;;;;;12.13;6.23;;;4.30;99.90;;;;;;5014233;28;20057;-67
2020/12/25 05:41:00;;;;;;;14.83;6.67;;;4.30;99.90;;;;;;5013468;28;20453;-67
2020/12/25 05:43:27;;;;;;;11.57;6.40;;;4.30;99.90;;;;;;5014320;28;20100;-67
2020/12/25 05:45:55;;;;;;;15.43;7.07;;;4.30;99.90;;;;;;5014059;28;20082;-68
2020/12/25 05:48:23;;;;;;;15.63;6.47;;;4.30;99.90;;;;;;5014222;28;20046;-67
2020/12/25 05:50:50;;;;;;;15.47;6.43;;;4.30;99.90;;;;;;5013864;28;20058;-67
2020/12/25 05:53:17;;;;;;;15.47;7.17;;;4.30;99.90;;;;;;5014256;28;20398;-67
2020/12/25 05:55:45;;;;;;;13.00;6.37;;;4.30;99.90;;;;;;5013928;28;20057;-67
2020/12/25 05:58:13;;;;;;;18.57;6.77;;;4.40;99.90;;;;;;5013161;28;20099;-67
2020/12/25 06:00:41;;;;;;;16.33;6.80;;;4.40;99.90;;;;;;5013787;28;20046;-67
2020/12/25 06:03:12;;;;;;;14.87;6.80;;;4.30;99.90;;;;;;5013490;28;20052;-67
2020/12/25 06:05:41;;;;;;;14.00;6.87;;;4.30;99.90;;;;;;5013996;28;20453;-68
2020/12/25 06:08:18;;;;;;;16.50;6.93;;;4.20;99.90;;;;;;5013306;28;20050;-67
2020/12/25 06:10:46;;;;;;;17.88;6.80;;;4.20;99.90;;;;;;5013706;28;20061;-67
2020/12/25 06:13:16;;;;;;;15.67;6.80;;;4.20;99.90;;;;;;5021678;28;20050;-67
2020/12/25 06:15:49;;;;;;;14.47;6.43;;;4.20;99.90;;;;;;5017844;28;20161;-68
2020/12/25 06:18:34;;;;;;;15.37;6.63;;;4.20;99.90;;;;;;5012887;28;20053;-67
2020/12/25 06:21:09;;;;;;;13.50;6.77;;;4.20;99.90;;;;;;5013389;28;20417;-68
2020/12/25 06:23:38;;;;;;;13.77;6.33;;;4.30;99.90;;;;;;5013214;28;20498;-68
2020/12/25 06:26:07;;;;;;;14.73;6.93;;;4.20;99.90;;;;;;5013371;28;20050;-67
2020/12/25 06:28:33;;;;;;;13.10;6.17;;;4.20;99.90;;;;;;5012964;28;20060;-67
2020/12/25 06:31:00;;;;;;;13.17;6.50;;;4.30;99.90;;;;;;5012807;28;20050;-67
2020/12/25 06:33:28;;;;;;;14.33;6.50;;;4.20;99.90;;;;;;5013406;28;20475;-67
2020/12/25 06:35:58;;;;;;;17.53;7.40;;;4.30;99.90;;;;;;5012729;28;20107;-67
2020/12/25 06:38:27;;;;;;;17.97;7.03;;;4.40;99.90;;;;;;5013060;28;20065;-70
2020/12/25 06:40:57;;;;;;;16.47;6.87;;;4.30;99.90;;;;;;5012434;28;20407;-68
2020/12/25 06:43:30;;;;;;;13.13;6.63;;;4.30;99.90;;;;;;5013544;28;20188;-68
2020/12/25 06:46:02;;;;;;;12.13;6.03;;;4.30;99.90;;;;;;5013268;28;20116;-68
2020/12/25 06:48:29;;;;;;;13.00;6.43;;;4.20;99.90;;;;;;5012519;28;20053;-67
2020/12/25 06:50:57;;;;;;;13.43;6.83;;;4.20;99.90;;;;;;5012595;28;20446;-68
2020/12/25 06:53:36;;;;;;;18.27;7.13;;;4.20;99.90;;;;;;5012894;28;20558;-68
2020/12/25 06:56:14;;;;;;;14.03;7.13;;;4.30;99.90;;;;;;5012356;28;20061;-68
2020/12/25 06:58:43;;;;;;;12.43;7.00;;;4.20;99.90;;;;;;5012668;28;20410;-67
2020/12/25 07:01:10;;;;;;;13.10;6.80;;;4.20;99.90;;;;;;5012220;28;20054;-67
2020/12/25 07:03:38;;;;;;;12.03;6.10;;;4.30;99.90;;;;;;5012665;28;20045;-68
2020/12/25 07:06:06;;;;;;;13.93;6.30;;;4.30;99.90;;;;;;5012377;28;20056;-67
2020/12/25 07:08:38;;;;;;;14.70;7.17;;;4.30;99.90;;;;;;5012483;28;20422;-67
2020/12/25 07:11:07;;;;;;;12.90;6.27;;;4.20;99.90;;;;;;5011929;28;20057;-67
2020/12/25 07:13:35;;;;;;;13.57;6.43;;;4.30;99.90;;;;;;5012462;28;20052;-67
2020/12/25 07:16:03;;;;;;;14.90;6.03;;;4.20;99.90;;;;;;5012341;28;20462;-67
2020/12/25 07:18:30;;;;;;;15.13;6.97;;;4.20;99.90;;;;;;5012532;28;20054;-68
2020/12/25 07:20:58;;;;;;;13.97;6.83;;;4.10;99.90;;;;;;5012401;28;20469;-68
2020/12/25 07:23:25;;;;;;;15.77;6.57;;;4.30;99.90;;;;;;5012346;28;20057;-68
2020/12/25 07:25:54;;;;;;;16.90;6.47;;;4.10;99.90;;;;;;5011913;28;20073;-67
2020/12/25 07:28:23;;;;;;;16.63;6.73;;;4.20;99.90;;;;;;5011759;28;20058;-67
2020/12/25 07:30:52;;;;;;;13.83;6.70;;;4.20;99.90;;;;;;5012214;28;20081;-67
2020/12/25 07:33:18;;;;;;;14.73;7.10;;;4.20;99.90;;;;;;5012000;28;20072;-67
2020/12/25 07:35:45;;;;;;;15.63;7.10;;;4.20;99.90;;;;;;5012200;28;20057;-67
2020/12/25 07:38:13;;;;;;;12.80;5.77;;;4.20;99.90;;;;;;5011847;28;20054;-67
2020/12/25 07:40:41;;;;;;;14.57;7.37;;;4.10;99.90;;;;;;5012015;28;20410;-69
2020/12/25 07:43:09;;;;;;;12.17;6.47;;;4.10;99.90;;;;;;5011529;28;20498;-67
2020/12/25 07:45:36;;;;;;;12.70;5.97;;;4.20;99.90;;;;;;5012148;28;20061;-67
2020/12/25 07:48:05;;;;;;;17.03;6.67;;;4.20;99.90;;;;;;5011389;28;20057;-67
2020/12/25 07:50:37;;;;;;;13.43;6.17;;;4.20;99.90;;;;;;5011636;28;20054;-67
2020/12/25 07:53:08;;;;;;;16.43;5.90;;;4.20;99.90;;;;;;5011609;28;20056;-69
2020/12/25 07:55:35;;;;;;;12.07;6.00;;;4.10;99.90;;;;;;5011818;28;20053;-67
2020/12/25 07:58:02;;;;;;;13.83;6.67;;;4.20;99.90;;;;;;5011050;28;20057;-67
2020/12/25 08:00:30;;;;;;;13.40;5.83;;;4.20;99.90;;;;;;5011608;28;20410;-67
2020/12/25 08:02:57;;;;;;;12.27;5.80;;;4.20;99.90;;;;;;5011690;28;20056;-68
2020/12/25 08:05:27;;;;;;;13.90;6.00;;;4.20;99.90;;;;;;5011499;28;20112;-68
2020/12/25 08:07:54;;;;;;;12.20;5.90;;;4.20;99.90;;;;;;5011917;28;20112;-67
2020/12/25 08:10:22;;;;;;;11.63;6.00;;;4.20;99.90;;;;;;5011236;28;20060;-68
2020/12/25 08:12:50;;;;;;;11.13;5.50;;;4.30;99.90;;;;;;5012202;28;20049;-68
2020/12/25 08:15:19;;;;;;;12.90;5.77;;;4.30;99.90;;;;;;5019215;28;20050;-68
2020/12/25 08:17:50;;;;;;;9.37;5.17;;;4.20;99.90;;;;;;5013811;28;20502;-68
2020/12/25 08:20:16;;;;;;;10.37;4.77;;;4.40;99.90;;;;;;5010953;28;20510;-68
2020/12/25 08:22:43;;;;;;;14.03;6.60;;;4.40;99.90;;;;;;5011681;28;20508;-67
2020/12/25 08:25:10;;;;;;;11.03;5.60;;;4.30;99.90;;;;;;5011331;28;20049;-68
2020/12/25 08:27:37;;;;;;;11.37;5.00;;;4.30;99.90;;;;;;5011548;28;20054;-67
2020/12/25 08:30:05;;;;;;;11.50;6.07;;;4.20;99.90;;;;;;5011125;28;20494;-67
2020/12/25 08:32:33;;;;;;;9.70;4.63;;;4.30;99.90;;;;;;5011534;28;20046;-67
2020/12/25 08:35:15;;;;;;;9.23;4.63;;;4.40;99.90;;;;;;5011088;28;20437;-67
2020/12/25 08:37:52;;;;;;;11.53;4.87;;;4.40;99.90;;;;;;5010287;28;20096;-67
2020/12/25 08:40:19;;;;;;;11.53;4.67;;;4.40;99.90;;;;;;5012440;28;20064;-67
2020/12/25 08:42:46;;;;;;;8.07;4.37;;;4.30;99.90;;;;;;5011495;28;20054;-67
2020/12/25 08:45:18;;;;;;;8.47;4.17;;;4.40;99.90;;;;;;5011202;28;20061;-67
2020/12/25 08:47:45;;;;;;;7.93;3.80;;;4.40;99.90;;;;;;5012484;28;20438;-68
2020/12/25 08:50:20;;;;;;;7.70;3.63;;;4.30;99.90;;;;;;5011045;28;20050;-68
2020/12/25 08:52:47;;;;;;;8.50;3.73;;;4.20;99.90;;;;;;5010445;28;20060;-68
2020/12/25 08:55:24;;;;;;;7.83;3.87;;;4.30;99.90;;;;;;5011178;28;20057;-68
2020/12/25 08:57:54;;;;;;;8.57;3.73;;;4.30;99.90;;;;;;5010499;28;20061;-68
2020/12/25 09:00:20;;;;;;;7.13;3.60;;;4.30;99.90;;;;;;5010721;28;20054;-67
2020/12/25 09:02:56;;;;;;;9.07;3.70;;;4.30;99.90;;;;;;5010725;28;20050;-67
2020/12/25 09:05:24;;;;;;;11.23;3.20;;;4.20;99.90;;;;;;5010725;28;20046;-67
2020/12/25 09:07:51;;;;;;;7.53;3.43;;;4.40;99.90;;;;;;5010428;28;20280;-67
2020/12/25 09:10:18;;;;;;;7.67;3.90;;;4.30;99.90;;;;;;5010622;28;20061;-67
2020/12/25 09:12:44;;;;;;;9.90;3.70;;;4.30;99.90;;;;;;5010600;28;20053;-68
2020/12/25 09:15:11;;;;;;;7.70;3.90;;;4.30;99.90;;;;;;5011168;28;20084;-67
2020/12/25 09:17:38;;;;;;;7.10;3.30;;;4.30;99.90;;;;;;5010138;28;20045;-68
2020/12/25 09:20:04;;;;;;;10.67;4.27;;;4.20;99.90;;;;;;5010711;28;20064;-67
2020/12/25 09:22:32;;;;;;;7.37;3.23;;;4.30;99.90;;;;;;5010331;28;20057;-68
2020/12/25 09:24:59;;;;;;;7.77;4.03;;;4.30;99.90;;;;;;5010993;28;20053;-67
2020/12/25 09:27:25;;;;;;;5.80;2.97;;;4.20;99.90;;;;;;5010904;28;20054;-67
2020/12/25 09:29:52;;;;;;;6.67;3.57;;;4.20;99.90;;;;;;5011142;28;20069;-69
2020/12/25 09:32:19;;;;;;;9.63;3.30;;;4.20;99.90;;;;;;5010563;28;20141;-68
2020/12/25 09:34:45;;;;;;;9.43;3.37;;;4.40;99.90;;;;;;5010846;28;20054;-67
2020/12/25 09:37:12;;;;;;;7.67;3.30;;;4.40;99.90;;;;;;5010641;28;20045;-68
2020/12/25 09:39:39;;;;;;;8.33;3.20;;;4.50;99.90;;;;;;5010398;28;20498;-68
2020/12/25 09:42:06;;;;;;;9.33;3.33;;;4.90;99.90;;;;;;5010271;28;20057;-68
2020/12/25 09:44:33;;;;;;;8.17;3.13;;;5.00;99.90;;;;;;5010137;28;20073;-67
2020/12/25 09:46:59;;;;;;;7.50;3.00;;;5.20;99.90;;;;;;5010746;28;20652;-68
2020/12/25 09:49:26;;;;;;;5.43;2.60;;;5.40;99.90;;;;;;5011185;28;20054;-68
2020/12/25 09:51:53;;;;;;;6.88;3.15;;;5.80;99.90;;;;;;5013796;28;20046;-69
2020/12/25 09:54:19;;;;;;;5.68;2.30;;;6.30;99.90;;;;;;5013886;28;20490;-68
2020/12/25 09:56:49;;;;;;;5.47;2.55;;;6.80;99.90;;;;;;5014053;28;20065;-68
2020/12/25 09:59:16;;;;;;;3.53;1.85;;;7.80;99.90;;;;;;5013538;28;20485;-68
2020/12/25 10:01:45;;;;;;;3.95;2.08;;;9.30;99.90;;;;;;5013626;28;20472;-68
2020/12/25 10:04:12;;;;;;;4.00;2.13;;;9.90;99.90;;;;;;5013932;28;20050;-68
2020/12/25 10:06:38;;;;;;;3.47;1.90;;;11.90;99.90;;;;;;5013480;28;20079;-68
2020/12/25 10:09:05;;;;;;;5.45;1.92;;;13.00;99.90;;;;;;5014167;28;20129;-68
2020/12/25 10:11:31;;;;;;;2.88;1.70;;;14.50;99.90;;;;;;5013028;28;20061;-68
2020/12/25 10:13:59;;;;;;;4.28;1.85;;;14.50;99.90;;;;;;5013526;28;20517;-68
2020/12/25 10:16:26;;;;;;;6.10;1.73;;;14.40;99.90;;;;;;5016643;28;20061;-68
2020/12/25 10:18:52;;;;;;;4.40;1.67;;;13.10;99.90;;;;;;5017381;28;20054;-68
2020/12/25 10:21:19;;;;;;;6.30;1.70;;;11.90;99.90;;;;;;5013252;28;20058;-68
2020/12/25 10:23:46;;;;;;;4.55;1.90;;;10.60;99.90;;;;;;5013931;28;20061;-68
2020/12/25 10:26:12;;;;;;;4.18;1.77;;;9.40;99.90;;;;;;5013179;28;20529;-68
2020/12/25 10:28:39;;;;;;;4.20;1.77;;;8.90;99.90;;;;;;5013383;28;20137;-68
2020/12/25 10:31:09;;;;;;;4.35;1.88;;;8.30;99.90;;;;;;5013145;28;20053;-68
2020/12/25 10:33:38;;;;;;;4.15;1.42;;;8.00;99.90;;;;;;5014497;28;20395;-68
2020/12/25 10:36:05;;;;;;;5.28;1.88;;;7.40;99.90;;;;;;5014360;28;20049;-68
2020/12/25 10:38:32;;;;;;;3.92;1.63;;;6.90;99.90;;;;;;5013229;28;20050;-67
2020/12/25 10:41:00;;;;;;;4.82;1.63;;;6.60;99.90;;;;;;5012804;28;20049;-68
2020/12/25 10:43:27;;;;;;;8.93;2.00;;;6.20;99.90;;;;;;5013002;28;20062;-67
2020/12/25 10:45:53;;;;;;;3.85;1.83;;;6.10;99.90;;;;;;5013200;28;20081;-67
2020/12/25 10:48:21;;;;;;;3.80;1.80;;;6.00;99.90;;;;;;5012779;28;20054;-67
2020/12/25 10:50:47;;;;;;;5.87;1.70;;;5.90;99.90;;;;;;5013031;28;20100;-67
2020/12/25 10:53:14;;;;;;;4.93;2.00;;;5.70;99.90;;;;;;5013086;28;20549;-67
2020/12/25 10:55:41;;;;;;;3.83;1.67;;;5.60;99.90;;;;;;5012802;28;20053;-68
2020/12/25 10:58:07;;;;;;;4.00;1.60;;;5.60;99.90;;;;;;5012417;28;20049;-67
2020/12/25 11:00:34;;;;;;;4.77;1.70;;;5.50;99.90;;;;;;5011894;28;20494;-67
2020/12/25 11:03:00;;;;;;;3.60;1.60;;;5.60;99.90;;;;;;5012275;28;20050;-67
2020/12/25 11:05:28;;;;;;;7.47;2.00;;;5.70;99.90;;;;;;5012891;28;20062;-67
2020/12/25 11:07:57;;;;;;;6.10;2.00;;;5.60;99.90;;;;;;5013221;28;20054;-67
2020/12/25 11:10:24;;;;;;;4.03;1.40;;;5.70;99.90;;;;;;5014490;28;20112;-67
2020/12/25 11:12:51;;;;;;;4.60;2.03;;;5.70;99.90;;;;;;5014948;28;20619;-67
2020/12/25 11:15:18;;;;;;;4.27;1.90;;;5.60;99.90;;;;;;5013876;28;20058;-67
2020/12/25 11:17:45;;;;;;;5.73;1.70;;;5.60;99.90;;;;;;5012886;28;20100;-67
2020/12/25 11:20:11;;;;;;;3.87;1.77;;;5.50;99.90;;;;;;5012223;28;20099;-66
2020/12/25 11:22:39;;;;;;;3.60;1.67;;;5.50;99.90;;;;;;5012785;28;20522;-67
2020/12/25 11:25:05;;;;;;;6.43;2.00;;;5.60;99.90;;;;;;5012858;28;20064;-67
2020/12/25 11:27:32;;;;;;;5.20;1.47;;;5.50;99.90;;;;;;5014168;28;20112;-67
2020/12/25 11:29:59;;;;;;;4.63;1.80;;;5.50;99.90;;;;;;5012598;28;20050;-67
2020/12/25 11:32:26;;;;;;;3.83;1.43;;;5.40;99.90;;;;;;5023476;28;20064;-67
2020/12/25 11:34:52;;;;;;;2.87;1.40;;;5.30;99.90;;;;;;5021167;28;20050;-67
2020/12/25 11:37:19;;;;;;;3.73;1.30;;;5.30;99.90;;;;;;5015777;28;20482;-67
2020/12/25 11:39:46;;;;;;;6.13;1.70;;;5.10;99.90;;;;;;5019875;28;20061;-67
2020/12/25 11:42:13;;;;;;;5.03;1.67;;;5.10;99.90;;;;;;5020865;28;20049;-67
2020/12/25 11:44:40;;;;;;;4.53;1.60;;;5.00;99.90;;;;;;5020061;28;20064;-67
2020/12/25 11:47:06;;;;;;;5.83;1.70;;;5.10;99.90;;;;;;5019829;28;20053;-67
2020/12/25 11:49:33;;;;;;;6.20;1.80;;;4.90;99.90;;;;;;5012447;28;20050;-67
2020/12/25 11:52:00;;;;;;;6.47;1.80;;;5.00;99.90;;;;;;5011331;28;20046;-68
2020/12/25 11:54:26;;;;;;;4.97;1.90;;;4.90;99.90;;;;;;5012217;28;20050;-67
2020/12/25 11:56:54;;;;;;;3.57;1.60;;;4.90;99.90;;;;;;5011518;28;20111;-67
2020/12/25 11:59:21;;;;;;;4.73;1.50;;;4.90;99.90;;;;;;5012424;28;20057;-67
2020/12/25 12:01:47;;;;;;;3.53;1.73;;;4.80;99.90;;;;;;5011375;28;20057;-67
2020/12/25 12:04:14;;;;;;;8.10;2.97;;;4.90;99.90;;;;;;5011842;28;20116;-67
2020/12/25 12:06:42;;;;;;;5.97;1.70;;;4.80;99.90;;;;;;5011377;28;20053;-67
2020/12/25 12:09:09;;;;;;;4.80;1.50;;;4.90;99.90;;;;;;5011949;28;20123;-67
2020/12/25 12:11:41;;;;;;;3.13;1.30;;;4.90;99.90;;;;;;5010960;28;20556;-67
2020/12/25 12:14:09;;;;;;;3.70;1.10;;;5.10;99.90;;;;;;5011566;28;20128;-67
2020/12/25 12:16:36;;;;;;;3.17;1.10;;;5.20;99.90;;;;;;5011411;28;20150;-67
2020/12/25 12:19:02;;;;;;;2.37;1.10;;;5.20;99.90;;;;;;5015096;28;20049;-67
2020/12/25 12:21:29;;;;;;;2.63;1.10;;;5.10;99.90;;;;;;5016265;28;20516;-67
2020/12/25 12:23:55;;;;;;;3.10;1.30;;;5.20;99.90;;;;;;5015502;28;20069;-67
2020/12/25 12:26:23;;;;;;;3.70;1.20;;;5.20;99.90;;;;;;5014711;28;20046;-67
2020/12/25 12:28:49;;;;;;;6.47;1.40;;;5.10;99.90;;;;;;5011588;28;20410;-67
2020/12/25 12:31:17;;;;;;;1.50;0.97;;;5.20;99.90;;;;;;5011518;28;20054;-67
2020/12/25 12:33:48;;;;;;;1.83;1.00;;;5.10;99.90;;;;;;5016130;28;20502;-67
2020/12/25 12:36:14;;;;;;;6.37;1.13;;;5.00;99.90;;;;;;5013370;28;20460;-67
2020/12/25 12:38:41;;;;;;;3.00;1.13;;;5.00;99.90;;;;;;5011526;28;20494;-67
2020/12/25 12:41:08;;;;;;;3.30;1.10;;;5.00;99.90;;;;;;5011481;28;20571;-70
2020/12/25 12:43:35;;;;;;;3.17;1.20;;;5.00;99.90;;;;;;5018115;28;20140;-67
2020/12/25 12:46:01;;;;;;;4.40;1.27;;;5.00;99.90;;;;;;5011100;28;20054;-67
2020/12/25 12:48:29;;;;;;;4.10;1.13;;;5.00;99.90;;;;;;5011912;28;20065;-67
2020/12/25 12:50:56;;;;;;;3.87;1.60;;;4.90;99.90;;;;;;5011734;28;20050;-67
2020/12/25 12:53:22;;;;;;;3.63;1.70;;;5.00;99.90;;;;;;5012629;28;20130;-67
2020/12/25 12:55:49;;;;;;;3.37;1.50;;;5.00;99.90;;;;;;5011355;28;20487;-67